Time;durP1;ratioP1;P1;durP2;ratioP2;P2;SDS_P1;SDS_P2;PMS_P1;PMS_P2;Temp;Humidity;BMP_temperature;BMP_pressure;BME280_temperature;BME280_humidity;BME280_pressure;Samples;Min_cycle;Max_cycle;Signal;HPM_P1;HPM_P2
2022/05/14 00:00:24;;;;;;;15.45;4.97;;;11.40;99.90;;;;;;5084804;28;20521;-57
2022/05/14 00:02:50;;;;;;;6.20;3.72;;;11.30;99.90;;;;;;5088439;28;20028;-60
2022/05/14 00:05:19;;;;;;;6.60;3.42;;;11.30;99.90;;;;;;5084383;28;20043;-60
2022/05/14 00:07:45;;;;;;;7.97;3.45;;;11.30;99.90;;;;;;5083942;28;20053;-57
2022/05/14 00:10:10;;;;;;;11.73;4.13;;;11.30;99.90;;;;;;5082882;28;20027;-60
2022/05/14 00:15:20;;;;;;;11.95;4.30;;;11.30;99.90;;;;;;5085467;28;20101;-56
2022/05/14 00:17:47;;;;;;;8.70;4.03;;;11.30;99.90;;;;;;5085435;28;20027;-57
2022/05/14 00:20:14;;;;;;;9.50;4.35;;;11.40;99.90;;;;;;5080808;28;20050;-54
2022/05/14 00:22:39;;;;;;;8.95;3.47;;;11.40;99.90;;;;;;5082365;28;20102;-59
2022/05/14 00:25:05;;;;;;;7.05;3.75;;;11.40;99.90;;;;;;5085041;28;20059;-59
2022/05/14 00:27:31;;;;;;;10.68;4.30;;;11.50;99.90;;;;;;5084656;28;20542;-60
2022/05/14 00:29:57;;;;;;;8.80;3.70;;;11.40;99.90;;;;;;5088003;28;20463;-57
2022/05/14 00:32:22;;;;;;;5.85;2.85;;;11.30;99.90;;;;;;5091950;28;20028;-59
2022/05/14 00:34:48;;;;;;;8.73;3.70;;;11.30;99.90;;;;;;5091037;28;20065;-59
2022/05/14 00:37:13;;;;;;;7.00;3.40;;;11.20;99.90;;;;;;5087599;28;20035;-59
2022/05/14 00:39:39;;;;;;;5.93;3.05;;;11.10;99.90;;;;;;5087891;28;20012;-58
2022/05/14 00:42:05;;;;;;;9.57;3.95;;;11.10;99.90;;;;;;5091298;28;20115;-58
2022/05/14 00:44:30;;;;;;;6.47;3.60;;;11.10;99.90;;;;;;5086946;28;20075;-55
2022/05/14 00:47:02;;;;;;;13.63;3.50;;;11.00;99.90;;;;;;5089890;28;20063;-58
2022/05/14 00:49:31;;;;;;;6.15;4.05;;;11.00;99.90;;;;;;5085354;28;20047;-56
2022/05/14 00:51:58;;;;;;;6.70;3.83;;;11.00;99.90;;;;;;5088892;28;20063;-58
2022/05/14 00:54:30;;;;;;;10.20;3.53;;;11.00;99.90;;;;;;5084607;28;20031;-59
2022/05/14 00:57:05;;;;;;;5.82;3.03;;;11.00;99.90;;;;;;5081585;28;20032;-58
2022/05/14 00:59:30;;;;;;;16.48;4.22;;;11.00;99.90;;;;;;5089074;28;20032;-59
2022/05/14 01:01:58;;;;;;;28.98;4.35;;;10.90;99.90;;;;;;5090362;28;20020;-59
2022/05/14 01:04:24;;;;;;;11.00;3.63;;;10.90;99.90;;;;;;5084993;28;20028;-59
2022/05/14 01:07:00;;;;;;;8.15;3.53;;;10.80;99.90;;;;;;5086169;28;20344;-58
2022/05/14 01:09:27;;;;;;;8.68;3.58;;;10.80;99.90;;;;;;5085342;28;20064;-59
2022/05/14 01:11:54;;;;;;;8.25;3.22;;;10.80;99.90;;;;;;5082684;28;20173;-59
2022/05/14 01:14:20;;;;;;;9.63;3.83;;;10.70;99.90;;;;;;5088534;28;20039;-60
2022/05/14 01:16:46;;;;;;;6.20;3.88;;;10.70;99.90;;;;;;5084272;28;20032;-59
2022/05/14 01:19:12;;;;;;;7.25;3.88;;;10.70;99.90;;;;;;5083343;28;20063;-60
2022/05/14 01:21:55;;;;;;;7.60;3.20;;;10.60;99.90;;;;;;5088616;28;20024;-60
2022/05/14 01:27:24;;;;;;;18.08;3.90;;;10.60;99.90;;;;;;5089301;28;20410;-59
2022/05/14 01:29:49;;;;;;;7.18;2.97;;;10.60;99.90;;;;;;5086479;28;20025;-58
2022/05/14 01:32:15;;;;;;;13.65;3.83;;;10.60;99.90;;;;;;5087635;28;20035;-59
2022/05/14 01:34:41;;;;;;;5.43;3.00;;;10.60;99.90;;;;;;5085652;28;20024;-59
2022/05/14 01:37:09;;;;;;;6.75;3.08;;;10.50;99.90;;;;;;5085634;28;20084;-58
2022/05/14 01:39:35;;;;;;;10.20;3.33;;;10.50;99.90;;;;;;5087290;28;20069;-58
2022/05/14 01:42:00;;;;;;;7.75;3.90;;;10.50;99.90;;;;;;5085592;28;20036;-59
2022/05/14 01:44:26;;;;;;;5.97;2.65;;;10.40;99.90;;;;;;5087728;28;20029;-59
2022/05/14 01:46:51;;;;;;;11.02;3.85;;;10.40;99.90;;;;;;5082923;28;20031;-59
2022/05/14 01:49:17;;;;;;;5.13;2.67;;;10.40;99.90;;;;;;5087405;28;20027;-58
2022/05/14 01:51:43;;;;;;;6.15;3.10;;;10.50;99.90;;;;;;5084635;28;20028;-59
2022/05/14 01:54:09;;;;;;;9.75;3.60;;;10.50;99.90;;;;;;5088591;28;20482;-60
2022/05/14 01:56:35;;;;;;;7.07;2.70;;;10.50;99.90;;;;;;5084193;28;20114;-58
2022/05/14 01:59:00;;;;;;;7.68;3.45;;;10.50;99.90;;;;;;5083426;28;20104;-59
2022/05/14 02:01:32;;;;;;;10.98;3.78;;;10.40;99.90;;;;;;5080912;28;20106;-60
2022/05/14 02:04:01;;;;;;;5.30;3.15;;;10.40;99.90;;;;;;5089617;28;20663;-59
2022/05/14 02:06:28;;;;;;;12.00;3.85;;;10.30;99.90;;;;;;5089321;28;20039;-59
2022/05/14 02:08:55;;;;;;;11.05;3.70;;;10.30;99.90;;;;;;5083620;28;21884;-57
2022/05/14 02:11:21;;;;;;;7.82;3.35;;;10.30;99.90;;;;;;5088096;28;20051;-60
2022/05/14 02:13:48;;;;;;;7.03;2.75;;;10.20;99.90;;;;;;5087044;28;20150;-60
2022/05/14 02:16:14;;;;;;;5.28;3.13;;;10.20;99.90;;;;;;5086844;28;20063;-60
2022/05/14 02:18:40;;;;;;;7.20;3.05;;;10.20;99.90;;;;;;5087840;28;20055;-59
2022/05/14 02:21:06;;;;;;;9.85;3.95;;;10.20;99.90;;;;;;5086152;28;20646;-58
2022/05/14 02:23:33;;;;;;;8.90;4.00;;;10.10;99.90;;;;;;5086837;28;20070;-59
2022/05/14 02:25:58;;;;;;;5.82;3.28;;;10.10;99.90;;;;;;5083747;28;20043;-60
2022/05/14 02:28:24;;;;;;;9.13;3.33;;;10.10;99.90;;;;;;5081440;28;20062;-59
2022/05/14 02:30:50;;;;;;;5.43;2.72;;;10.10;99.90;;;;;;5085080;28;20036;-57
2022/05/14 02:33:16;;;;;;;9.57;3.55;;;10.00;99.90;;;;;;5087660;28;20081;-58
2022/05/14 02:35:43;;;;;;;10.90;3.95;;;10.10;99.90;;;;;;5086894;28;20165;-60
2022/05/14 02:38:09;;;;;;;6.43;3.05;;;10.00;99.90;;;;;;5082500;28;20020;-56
2022/05/14 02:40:35;;;;;;;8.63;3.05;;;10.10;99.90;;;;;;5084475;28;20051;-59
2022/05/14 02:43:01;;;;;;;5.57;3.05;;;10.10;99.90;;;;;;5087034;28;20012;-60
2022/05/14 02:45:27;;;;;;;8.35;2.78;;;10.00;99.90;;;;;;5087723;28;20035;-59
2022/05/14 02:47:53;;;;;;;14.32;4.55;;;10.00;99.90;;;;;;5085090;28;20028;-58
2022/05/14 02:50:19;;;;;;;5.28;2.63;;;10.10;99.90;;;;;;5086218;28;20497;-59
2022/05/14 02:52:44;;;;;;;15.95;3.13;;;10.10;99.90;;;;;;5087946;28;20020;-59
2022/05/14 02:55:11;;;;;;;12.23;2.75;;;10.20;99.90;;;;;;5088495;28;20481;-59
2022/05/14 02:57:36;;;;;;;7.32;2.47;;;10.20;99.90;;;;;;5085393;28;20162;-60
2022/05/14 03:00:09;;;;;;;6.38;3.83;;;10.20;99.90;;;;;;5088027;28;20499;-58
2022/05/14 03:02:35;;;;;;;7.93;3.13;;;10.20;99.90;;;;;;5086602;28;20515;-58
2022/05/14 03:05:01;;;;;;;7.40;3.08;;;10.10;99.90;;;;;;5086460;28;20328;-58
2022/05/14 03:07:27;;;;;;;8.93;3.05;;;10.10;99.90;;;;;;5089145;28;20065;-61
2022/05/14 03:09:52;;;;;;;4.85;2.35;;;10.10;99.90;;;;;;5089416;28;20501;-60
2022/05/14 03:12:21;;;;;;;7.22;2.85;;;10.20;99.90;;;;;;5091339;22;20102;-66
2022/05/14 03:14:48;;;;;;;3.60;2.08;;;10.10;99.90;;;;;;5069016;28;20029;-66
2022/05/14 03:17:15;;;;;;;5.80;3.00;;;10.20;99.90;;;;;;5067811;28;20090;-66
2022/05/14 03:19:41;;;;;;;9.50;2.50;;;10.10;99.90;;;;;;5069985;28;20486;-67
2022/05/14 03:22:06;;;;;;;5.40;2.30;;;10.10;99.90;;;;;;5066785;28;20078;-66
2022/05/14 03:24:33;;;;;;;8.07;2.50;;;10.10;99.90;;;;;;5070276;28;20067;-66
2022/05/14 03:27:00;;;;;;;13.60;2.83;;;10.10;99.90;;;;;;5064637;28;20036;-66
2022/05/14 03:29:25;;;;;;;2.75;2.08;;;10.10;99.90;;;;;;5068823;28;20028;-66
2022/05/14 03:31:51;;;;;;;7.25;2.70;;;10.00;99.90;;;;;;5068284;28;20086;-66
2022/05/14 03:34:17;;;;;;;7.90;3.08;;;10.10;99.90;;;;;;5066843;28;20082;-66
2022/05/14 03:36:43;;;;;;;4.55;2.25;;;10.10;99.90;;;;;;5069378;28;20016;-66
2022/05/14 03:39:09;;;;;;;11.13;2.85;;;10.00;99.90;;;;;;5069675;28;20108;-67
2022/05/14 03:41:35;;;;;;;5.07;2.47;;;9.90;99.90;;;;;;5068187;28;20647;-66
2022/05/14 03:44:01;;;;;;;5.05;2.58;;;9.80;99.90;;;;;;5066430;28;20494;-67
2022/05/14 03:46:27;;;;;;;13.63;3.25;;;9.70;99.90;;;;;;5062579;28;20036;-67
2022/05/14 03:48:52;;;;;;;10.25;2.40;;;9.70;99.90;;;;;;5067951;28;20525;-66
2022/05/14 03:51:18;;;;;;;5.25;2.60;;;9.60;99.90;;;;;;5063925;28;20016;-65
2022/05/14 03:53:44;;;;;;;6.88;2.22;;;9.60;99.90;;;;;;5069545;28;21819;-66
2022/05/14 03:56:09;;;;;;;10.75;2.90;;;9.70;99.90;;;;;;5069841;28;20442;-65
2022/05/14 03:58:36;;;;;;;7.47;2.83;;;9.50;99.90;;;;;;5069353;28;20016;-66
2022/05/14 04:01:04;;;;;;;4.65;2.88;;;9.50;99.90;;;;;;5069861;28;20028;-65
2022/05/14 04:03:31;;;;;;;6.80;2.92;;;9.40;99.90;;;;;;5067091;28;20074;-63
2022/05/14 04:05:57;;;;;;;5.10;2.42;;;9.40;99.90;;;;;;5067466;28;20439;-65
2022/05/14 04:08:23;;;;;;;10.80;3.15;;;9.40;99.90;;;;;;5070566;28;20133;-66
2022/05/14 04:10:48;;;;;;;10.20;4.40;;;9.40;99.90;;;;;;5070503;28;20533;-65
2022/05/14 04:13:14;;;;;;;9.93;3.88;;;9.30;99.90;;;;;;5069428;28;20033;-65
2022/05/14 04:15:40;;;;;;;6.50;3.28;;;9.30;99.90;;;;;;5068983;28;20410;-65
2022/05/14 04:18:06;;;;;;;6.32;3.00;;;9.30;99.90;;;;;;5067115;28;20032;-65
2022/05/14 04:20:32;;;;;;;5.85;3.30;;;9.30;99.90;;;;;;5069397;28;20020;-65
2022/05/14 04:22:58;;;;;;;12.32;3.83;;;9.20;99.90;;;;;;5070035;28;20111;-66
2022/05/14 04:25:24;;;;;;;6.85;3.63;;;9.30;99.90;;;;;;5069849;28;20037;-65
2022/05/14 04:27:50;;;;;;;9.23;3.35;;;9.30;99.90;;;;;;5070301;28;20029;-65
2022/05/14 04:30:17;;;;;;;10.45;2.72;;;9.40;99.90;;;;;;5066769;28;20033;-66
2022/05/14 04:32:43;;;;;;;13.70;3.55;;;9.40;99.90;;;;;;5064741;28;20122;-65
2022/05/14 04:35:10;;;;;;;6.25;3.10;;;9.40;99.90;;;;;;5069719;28;20028;-67
2022/05/14 04:37:36;;;;;;;7.63;3.45;;;9.30;99.90;;;;;;5063676;28;20024;-66
2022/05/14 04:40:02;;;;;;;13.73;3.30;;;9.30;99.90;;;;;;5064118;28;20601;-66
2022/05/14 04:42:28;;;;;;;6.57;3.05;;;9.40;99.90;;;;;;5069672;28;20406;-66
2022/05/14 04:44:53;;;;;;;5.70;3.08;;;9.30;99.90;;;;;;5070124;28;20025;-65
2022/05/14 04:47:19;;;;;;;10.10;3.47;;;9.30;99.90;;;;;;5069643;28;20565;-66
2022/05/14 04:49:46;;;;;;;5.78;4.35;;;9.30;99.90;;;;;;5069486;28;20042;-66
2022/05/14 04:52:12;;;;;;;9.40;2.60;;;9.30;99.90;;;;;;5069730;28;20033;-65
2022/05/14 04:54:38;;;;;;;7.20;3.05;;;9.30;99.90;;;;;;5069819;28;20025;-66
2022/05/14 04:57:05;;;;;;;8.77;3.78;;;9.30;99.90;;;;;;5068717;28;20029;-65
2022/05/14 04:59:31;;;;;;;6.60;3.25;;;9.40;99.90;;;;;;5068929;28;20494;-65
2022/05/14 05:04:43;;;;;;;5.97;3.70;;;9.50;99.90;;;;;;5068916;28;20367;-64
2022/05/14 05:07:08;;;;;;;10.27;2.72;;;9.60;99.90;;;;;;5069154;28;20025;-65
2022/05/14 05:09:34;;;;;;;13.70;3.42;;;9.60;99.90;;;;;;5069598;28;20021;-65
2022/05/14 05:12:00;;;;;;;7.32;2.97;;;9.70;99.90;;;;;;5067606;28;20045;-65
2022/05/14 05:14:25;;;;;;;7.97;3.15;;;9.80;99.90;;;;;;5069928;28;20029;-65
2022/05/14 05:16:51;;;;;;;6.22;3.10;;;9.90;99.90;;;;;;5070634;28;20028;-65
2022/05/14 05:19:17;;;;;;;5.40;3.35;;;9.90;99.90;;;;;;5072307;28;20025;-66
2022/05/14 05:21:43;;;;;;;9.88;3.40;;;10.00;99.90;;;;;;5073112;28;20506;-65
2022/05/14 05:24:09;;;;;;;8.98;3.40;;;10.00;99.90;;;;;;5071089;28;20035;-64
2022/05/14 05:26:35;;;;;;;8.63;3.00;;;10.00;99.90;;;;;;5072304;28;20033;-65
2022/05/14 05:29:03;;;;;;;6.32;3.20;;;10.10;99.90;;;;;;5071977;28;20481;-64
2022/05/14 05:31:29;;;;;;;16.30;3.40;;;10.10;99.90;;;;;;5071378;28;20032;-65
2022/05/14 05:33:55;;;;;;;10.60;3.13;;;10.20;99.90;;;;;;5071809;28;20482;-66
2022/05/14 05:36:20;;;;;;;9.82;3.40;;;10.30;99.90;;;;;;5071928;28;20036;-65
2022/05/14 05:38:46;;;;;;;5.05;2.60;;;10.60;99.90;;;;;;5072160;28;20021;-65
2022/05/14 05:41:12;;;;;;;6.35;3.20;;;10.60;99.90;;;;;;5072629;28;20086;-66
2022/05/14 05:43:37;;;;;;;7.30;2.45;;;10.90;99.90;;;;;;5068802;28;20551;-65
2022/05/14 05:46:03;;;;;;;7.90;1.92;;;11.20;99.90;;;;;;5071815;28;20028;-65
2022/05/14 05:48:28;;;;;;;8.52;2.15;;;11.30;99.90;;;;;;5071863;28;20732;-66
2022/05/14 05:50:54;;;;;;;4.72;2.13;;;11.50;99.90;;;;;;5071990;28;20035;-65
2022/05/14 05:56:46;;;;;;;5.28;2.17;;;11.80;99.90;;;;;;5072689;28;20059;-65
2022/05/14 05:58:50;;;;;;;7.93;2.90;;;12.00;99.90;;;;;;5068585;28;20036;-65
2022/05/14 06:01:16;;;;;;;8.80;2.10;;;12.00;99.90;;;;;;5078927;28;20025;-65
2022/05/14 06:03:42;;;;;;;10.70;2.00;;;12.10;99.90;;;;;;5070568;28;20115;-66
2022/05/14 06:06:08;;;;;;;11.27;2.10;;;12.10;99.90;;;;;;5071546;28;20029;-65
2022/05/14 06:08:33;;;;;;;3.28;1.83;;;12.30;99.90;;;;;;5072146;28;20032;-65
2022/05/14 06:10:59;;;;;;;8.98;2.30;;;12.30;99.90;;;;;;5071084;28;20029;-66
2022/05/14 06:13:25;;;;;;;6.45;2.33;;;12.40;99.90;;;;;;5072268;28;20044;-66
2022/05/14 06:15:52;;;;;;;5.47;2.00;;;12.50;99.90;;;;;;5081271;28;20382;-65
2022/05/14 06:18:18;;;;;;;4.25;1.88;;;12.60;99.90;;;;;;5070329;28;20024;-65
2022/05/14 06:20:44;;;;;;;11.07;2.47;;;12.60;99.90;;;;;;5071787;28;20101;-65
2022/05/14 06:23:10;;;;;;;7.00;1.85;;;12.80;99.90;;;;;;5070085;28;20025;-65
2022/05/14 06:25:36;;;;;;;9.27;2.20;;;12.80;99.90;;;;;;5072085;28;20025;-66
2022/05/14 06:28:01;;;;;;;4.65;2.38;;;12.90;99.90;;;;;;5071588;28;20032;-66
2022/05/14 06:30:27;;;;;;;3.90;1.67;;;12.90;99.90;;;;;;5071105;28;20025;-66
2022/05/14 06:32:52;;;;;;;7.10;1.88;;;13.00;99.90;;;;;;5068595;28;20048;-65
2022/05/14 06:35:18;;;;;;;4.55;2.03;;;13.00;99.90;;;;;;5070582;28;20040;-66
2022/05/14 06:37:45;;;;;;;11.70;2.38;;;13.00;99.90;;;;;;5070632;28;20021;-66
2022/05/14 06:40:11;;;;;;;4.95;1.90;;;13.10;99.90;;;;;;5070413;28;20086;-66
2022/05/14 06:42:37;;;;;;;9.65;2.33;;;13.10;99.90;;;;;;5071803;28;20039;-65
2022/05/14 06:45:04;;;;;;;7.80;2.60;;;13.20;99.90;;;;;;5070407;28;20028;-66
2022/05/14 06:47:29;;;;;;;8.85;2.60;;;13.20;99.90;;;;;;5070725;28;20025;-66
2022/05/14 06:49:55;;;;;;;7.63;2.38;;;13.30;99.90;;;;;;5070340;28;20642;-66
2022/05/14 06:52:20;;;;;;;6.07;2.22;;;13.30;99.90;;;;;;5064413;28;20521;-66
2022/05/14 06:54:49;;;;;;;5.75;1.75;;;13.30;99.90;;;;;;5069904;28;20391;-65
2022/05/14 06:57:15;;;;;;;7.45;1.92;;;13.40;99.90;;;;;;5068888;28;20024;-65
2022/05/14 06:59:41;;;;;;;13.43;2.65;;;13.40;99.90;;;;;;5059215;28;20509;-64
2022/05/14 07:02:10;;;;;;;6.10;2.28;;;13.50;99.90;;;;;;5064158;28;20104;-65
2022/05/14 07:07:19;;;;;;;8.35;2.30;;;13.70;99.90;;;;;;5070311;28;20116;-65
2022/05/14 07:09:45;;;;;;;7.95;2.10;;;13.70;99.90;;;;;;5068227;28;20465;-66
2022/05/14 07:12:12;;;;;;;8.38;1.80;;;13.80;99.90;;;;;;5068792;28;20037;-65
2022/05/14 07:14:43;;;;;;;7.97;2.05;;;13.80;99.90;;;;;;5070484;28;20024;-66
2022/05/14 07:17:10;;;;;;;11.60;1.98;;;13.90;99.90;;;;;;5069817;28;20031;-66
2022/05/14 07:19:37;;;;;;;7.10;1.90;;;13.90;99.90;;;;;;5070810;28;20074;-66
2022/05/14 07:22:03;;;;;;;8.52;1.92;;;13.90;99.90;;;;;;5066749;28;20039;-65
2022/05/14 07:24:30;;;;;;;11.85;2.42;;;13.90;99.90;;;;;;5066864;28;20017;-65
2022/05/14 07:26:59;;;;;;;10.45;2.35;;;14.00;99.90;;;;;;5070922;28;20032;-65
2022/05/14 07:29:26;;;;;;;10.68;2.45;;;14.00;99.90;;;;;;5070270;28;20021;-64
2022/05/14 07:31:52;;;;;;;10.32;2.08;;;14.10;99.90;;;;;;5070114;28;20033;-60
2022/05/14 07:34:19;;;;;;;4.95;1.88;;;14.20;99.90;;;;;;5071572;28;20462;-61
2022/05/14 07:37:19;;;;;;;9.27;2.05;;;14.20;99.90;;;;;;5070806;28;20389;-61
2022/05/14 07:39:53;;;;;;;12.55;2.75;;;14.20;99.90;;;;;;5071386;28;20117;-61
2022/05/14 07:42:30;;;;;;;8.18;2.28;;;14.30;99.90;;;;;;5067949;28;20009;-60
2022/05/14 07:44:58;;;;;;;6.57;2.90;;;14.30;99.90;;;;;;5084425;28;20028;-56
2022/05/14 07:47:24;;;;;;;7.05;1.67;;;14.40;99.90;;;;;;5070861;28;20033;-63
2022/05/14 07:49:50;;;;;;;7.88;2.00;;;14.40;99.90;;;;;;5072083;28;20032;-60
2022/05/14 07:52:17;;;;;;;4.82;2.30;;;14.50;99.90;;;;;;5067846;28;20107;-60
2022/05/14 07:54:43;;;;;;;10.63;2.38;;;14.60;99.90;;;;;;5072551;28;20024;-60
2022/05/14 07:57:08;;;;;;;15.27;2.13;;;14.60;99.90;;;;;;5065891;28;20032;-61
2022/05/14 07:59:35;;;;;;;11.07;2.10;;;14.60;99.90;;;;;;5071604;28;20097;-61
2022/05/14 08:02:06;;;;;;;4.45;1.90;;;14.60;99.90;;;;;;5070205;28;20024;-63
2022/05/14 08:04:33;;;;;;;9.15;2.40;;;14.60;99.90;;;;;;5067425;28;20569;-62
2022/05/14 08:06:58;;;;;;;5.05;2.47;;;14.70;99.90;;;;;;5066427;28;20039;-61
2022/05/14 08:09:24;;;;;;;9.10;2.00;;;14.80;99.90;;;;;;5068017;28;20029;-61
2022/05/14 08:11:51;;;;;;;9.38;2.42;;;14.80;99.90;;;;;;5069368;28;20343;-61
2022/05/14 08:14:17;;;;;;;7.15;2.38;;;14.90;99.90;;;;;;5065314;28;20040;-59
2022/05/14 08:16:42;;;;;;;6.15;2.10;;;14.90;99.90;;;;;;5066184;28;20060;-58
2022/05/14 08:19:08;;;;;;;10.68;2.35;;;15.10;99.90;;;;;;5070227;28;20031;-59
2022/05/14 08:24:36;;;;;;;9.23;3.87;;;15.30;99.90;;;;;;5061965;28;20067;-60
2022/05/14 08:27:07;;;;;;;8.97;2.23;;;15.50;99.90;;;;;;5064269;28;20314;-58
2022/05/14 08:29:34;;;;;;;10.38;1.73;;;15.60;99.90;;;;;;5064539;28;20267;-62
2022/05/14 08:31:59;;;;;;;5.95;2.40;;;15.70;99.90;;;;;;5065163;28;20386;-59
2022/05/14 08:34:25;;;;;;;9.05;2.85;;;15.80;99.90;;;;;;5071590;28;20029;-61
2022/05/14 08:36:51;;;;;;;6.63;2.00;;;15.90;99.90;;;;;;5070331;28;20032;-62
2022/05/14 08:39:16;;;;;;;6.10;2.28;;;15.90;99.90;;;;;;5070008;28;20031;-60
2022/05/14 08:41:47;;;;;;;10.52;2.45;;;15.90;99.90;;;;;;5065769;28;20023;-60
2022/05/14 08:44:16;;;;;;;9.85;2.40;;;16.00;99.90;;;;;;5068419;28;20074;-59
2022/05/14 08:46:43;;;;;;;12.75;2.13;;;16.10;99.90;;;;;;5065580;28;20029;-66
2022/05/14 08:49:17;;;;;;;2.97;2.00;;;16.20;99.90;;;;;;5066694;28;20040;-60
2022/05/14 08:51:47;;;;;;;11.80;4.25;;;16.30;99.90;;;;;;5063305;28;20078;-61
2022/05/14 08:54:13;;;;;;;3.28;1.80;;;16.40;99.90;;;;;;5071333;28;20041;-63
2022/05/14 08:57:01;;;;;;;8.38;2.08;;;16.60;99.90;;;;;;5068749;28;20084;-60
2022/05/14 09:00:05;;;;;;;10.30;2.13;;;16.60;99.90;;;;;;5073754;28;20024;-61
2022/05/14 09:02:33;;;;;;;8.20;2.35;;;16.40;99.90;;;;;;5064337;28;20044;-58
2022/05/14 09:05:03;;;;;;;7.82;2.55;;;16.60;99.90;;;;;;5069020;28;20036;-60
2022/05/14 09:07:29;;;;;;;9.23;2.22;;;16.80;99.90;;;;;;5065271;28;20367;-57
2022/05/14 09:09:57;;;;;;;9.52;3.17;;;16.90;99.90;;;;;;5067549;28;20020;-59
2022/05/14 09:15:13;;;;;;;9.25;3.42;;;17.10;99.90;;;;;;5027294;28;20052;-65
2022/05/14 09:17:39;;;;;;;6.95;2.83;;;17.20;99.90;;;;;;5021655;28;20037;-65
2022/05/14 09:20:06;;;;;;;9.07;3.63;;;17.40;99.90;;;;;;5026531;28;20119;-65
2022/05/14 09:22:45;;;;;;;7.40;2.42;;;17.50;99.90;;;;;;5012782;28;20030;-65
2022/05/14 09:25:21;;;;;;;7.63;2.63;;;17.60;99.90;;;;;;5008817;28;20104;-65
2022/05/14 09:28:36;;;;;;;14.20;2.45;;;17.60;99.90;;;;;;5009537;28;20058;-65
2022/05/14 09:31:01;;;;;;;10.10;2.55;;;17.70;99.90;;;;;;5004657;28;20034;-64
2022/05/14 09:33:43;;;;;;;12.32;2.78;;;17.80;99.90;;;;;;5008422;28;20044;-65
2022/05/14 09:36:18;;;;;;;9.07;3.33;;;17.90;99.90;;;;;;5006907;28;20537;-61
2022/05/14 09:38:45;;;;;;;7.75;2.63;;;18.10;99.90;;;;;;5010113;28;20022;-64
2022/05/14 09:41:18;;;;;;;8.43;2.33;;;18.20;99.90;;;;;;5004565;28;20105;-64
2022/05/14 09:43:45;;;;;;;10.38;2.72;;;18.50;99.90;;;;;;5008114;28;20102;-63
2022/05/14 09:46:34;;;;;;;5.93;2.60;;;18.60;99.90;;;;;;5006841;28;20773;-63
2022/05/14 09:49:04;;;;;;;11.20;2.75;;;18.70;99.90;;;;;;5009731;28;20109;-64
2022/05/14 09:51:49;;;;;;;11.00;3.13;;;19.10;99.90;;;;;;5008833;28;20785;-65
2022/05/14 09:54:28;;;;;;;16.02;3.45;;;19.20;99.90;;;;;;5007506;28;20038;-64
2022/05/14 09:57:05;;;;;;;7.18;2.17;;;19.00;99.90;;;;;;5007619;28;20033;-65
2022/05/14 10:00:02;;;;;;;12.07;3.08;;;19.40;99.90;;;;;;5004877;28;20022;-66
2022/05/14 10:03:01;;;;;;;9.48;2.85;;;19.50;99.90;;;;;;5009188;28;20022;-65
2022/05/14 10:05:51;;;;;;;12.20;3.05;;;19.60;99.90;;;;;;5009312;28;20066;-65
2022/05/14 10:08:46;;;;;;;20.40;3.38;;;19.80;99.90;;;;;;5005441;28;20112;-65
2022/05/14 10:11:25;;;;;;;;;;;20.30;99.90;;;;;;4986925;28;20030;-65
2022/05/14 10:14:11;;;;;;;13.23;3.17;;;20.40;99.90;;;;;;5009734;28;19913;-65
2022/05/14 10:17:08;;;;;;;11.52;4.18;;;20.00;99.90;;;;;;5010218;28;20053;-65
2022/05/14 10:20:05;;;;;;;6.25;2.55;;;19.90;99.90;;;;;;5008390;28;20870;-65
2022/05/14 10:26:46;;;;;;;14.82;3.33;;;20.40;99.90;;;;;;5006030;28;20399;-65
2022/05/14 10:29:33;;;;;;;12.50;3.85;;;20.50;99.90;;;;;;5009850;28;20499;-66
2022/05/14 10:32:09;;;;;;;14.45;3.60;;;20.40;99.90;;;;;;5009087;28;20065;-65
2022/05/14 10:35:10;;;;;;;6.72;3.53;;;20.80;99.90;;;;;;5010471;28;20028;-65
2022/05/14 10:37:56;;;;;;;14.35;3.92;;;21.20;99.90;;;;;;5007204;28;20029;-67
2022/05/14 10:40:57;;;;;;;9.75;3.50;;;21.00;99.90;;;;;;5008846;28;20018;-65
2022/05/14 10:43:31;;;;;;;9.30;3.25;;;21.00;99.90;;;;;;4970313;28;20038;-65
2022/05/14 10:45:59;;;;;;;9.63;3.17;;;21.00;99.90;;;;;;5008566;28;20033;-64
2022/05/14 10:48:55;;;;;;;14.45;3.38;;;21.00;99.90;;;;;;5007553;28;20061;-66
2022/05/14 10:51:24;;;;;;;6.63;2.42;;;21.30;99.90;;;;;;4982755;28;20815;-65
2022/05/14 10:53:50;;;;;;;11.80;2.90;;;21.50;99.90;;;;;;5010435;28;20048;-65
2022/05/14 10:56:26;;;;;;;13.23;3.13;;;21.40;99.90;;;;;;5003989;28;20053;-64
2022/05/14 10:59:00;;;;;;;9.98;3.92;;;21.40;99.90;;;;;;5003855;28;20025;-66
2022/05/14 11:01:41;;;;;;;9.55;2.58;;;20.90;99.90;;;;;;5005451;28;20839;-65
2022/05/14 11:04:21;;;;;;;8.82;2.60;;;21.50;99.90;;;;;;5006941;28;20021;-64
2022/05/14 11:06:54;;;;;;;6.15;2.83;;;21.80;99.90;;;;;;5006168;28;20146;-64
2022/05/14 11:09:24;;;;;;;10.63;3.05;;;21.90;99.90;;;;;;5007145;28;20092;-66
2022/05/14 11:11:55;;;;;;;11.48;3.47;;;22.20;99.90;;;;;;5005759;28;20037;-64
2022/05/14 11:14:22;;;;;;;4.18;2.38;;;22.40;99.90;;;;;;5007239;28;20045;-64
2022/05/14 11:16:51;;;;;;;9.07;2.70;;;22.00;99.90;;;;;;5007157;28;20508;-64
2022/05/14 11:19:34;;;;;;;17.38;3.13;;;22.20;99.90;;;;;;5009023;28;20032;-64
2022/05/14 11:22:01;;;;;;;6.95;2.95;;;22.10;99.90;;;;;;5008287;28;20049;-65
2022/05/14 11:24:37;;;;;;;7.05;2.50;;;21.90;99.90;;;;;;5009269;28;20045;-64
2022/05/14 11:27:03;;;;;;;6.72;2.90;;;21.90;99.90;;;;;;5006533;28;20070;-64
2022/05/14 11:29:34;;;;;;;8.65;3.03;;;21.90;99.90;;;;;;5006696;28;20063;-64
2022/05/14 11:32:08;;;;;;;8.35;2.40;;;22.20;99.90;;;;;;5005142;28;20049;-65
2022/05/14 11:34:35;;;;;;;13.13;2.80;;;22.70;99.90;;;;;;5006410;28;20117;-64
2022/05/14 11:37:04;;;;;;;11.77;2.63;;;23.10;99.90;;;;;;5007362;28;20068;-65
2022/05/14 11:39:38;;;;;;;11.40;2.70;;;22.90;99.90;;;;;;5008912;28;20053;-65
2022/05/14 11:42:12;;;;;;;;;;;23.50;99.90;;;;;;5001766;28;20075;-63
2022/05/14 11:44:40;;;;;;;9.40;2.30;;;23.80;99.90;;;;;;5006899;28;19909;-65
2022/05/14 11:47:29;;;;;;;6.75;2.65;;;23.10;99.90;;;;;;5004269;28;20492;-65
2022/05/14 11:49:57;;;;;;;5.30;1.65;;;23.30;99.90;;;;;;5007344;28;20030;-64
2022/05/14 11:52:39;;;;;;;10.13;3.13;;;23.60;99.90;;;;;;5009164;28;20400;-65
2022/05/14 11:55:08;;;;;;;7.00;1.88;;;23.40;99.90;;;;;;5004617;28;20022;-63
2022/05/14 11:57:48;;;;;;;6.15;1.75;;;23.70;99.90;;;;;;5008693;28;20018;-65
2022/05/14 12:00:15;;;;;;;11.57;1.88;;;23.20;99.90;;;;;;5005461;28;20475;-65
2022/05/14 12:02:47;;;;;;;3.90;2.13;;;23.30;99.90;;;;;;5007486;28;20034;-63
2022/05/14 12:05:37;;;;;;;4.30;1.80;;;23.40;99.90;;;;;;5002488;28;20035;-65
2022/05/14 12:08:36;;;;;;;5.53;1.88;;;23.50;99.90;;;;;;5003259;28;20032;-64
2022/05/14 12:11:35;;;;;;;7.82;1.70;;;23.80;99.90;;;;;;5004944;28;20018;-65
2022/05/14 12:14:01;;;;;;;7.25;1.58;;;23.70;99.90;;;;;;5007024;28;20094;-64
2022/05/14 12:16:30;;;;;;;11.75;2.38;;;23.70;99.90;;;;;;5007735;28;20056;-65
2022/05/14 12:18:55;;;;;;;8.88;2.40;;;23.70;99.90;;;;;;5008068;28;20754;-65
2022/05/14 12:21:21;;;;;;;7.35;2.15;;;23.40;99.90;;;;;;5007666;28;20080;-65
2022/05/14 12:23:51;;;;;;;7.15;1.80;;;23.60;99.90;;;;;;5008538;28;20057;-62
2022/05/14 12:28:42;;;;;;;4.47;1.65;;;24.30;99.90;;;;;;5072425;27;20327;-63
2022/05/14 12:34:02;;;;;;;5.10;1.83;;;24.30;99.90;;;;;;5054775;28;20545;-64
2022/05/14 12:36:45;;;;;;;10.68;2.35;;;24.60;99.90;;;;;;5038884;28;20048;-64
2022/05/14 12:39:18;;;;;;;2.83;1.73;;;24.60;99.90;;;;;;5043866;28;20021;-63
2022/05/14 12:41:49;;;;;;;6.23;2.10;;;24.60;99.90;;;;;;5046529;28;20026;-63
2022/05/14 12:44:30;;;;;;;1.92;1.55;;;25.20;99.90;;;;;;5045850;28;20060;-65
2022/05/14 12:46:58;;;;;;;5.93;1.85;;;24.90;99.90;;;;;;5045337;28;20483;-64
2022/05/14 12:49:33;;;;;;;6.82;1.90;;;24.80;99.90;;;;;;5045852;28;20056;-64
2022/05/14 12:52:06;;;;;;;5.18;1.85;;;24.60;99.90;;;;;;5044495;28;20022;-64
2022/05/14 12:54:34;;;;;;;7.15;1.95;;;24.80;99.90;;;;;;5036911;28;20061;-63
2022/05/14 12:57:03;;;;;;;8.00;1.60;;;24.70;99.90;;;;;;5044181;28;20025;-62
2022/05/14 12:59:29;;;;;;;7.93;2.25;;;25.00;99.90;;;;;;5044065;28;20449;-65
2022/05/14 13:02:01;;;;;;;7.63;1.45;;;25.20;99.90;;;;;;5044495;28;20047;-62
2022/05/14 13:04:39;;;;;;;6.68;1.92;;;25.30;99.90;;;;;;5046330;28;20133;-63
2022/05/14 13:07:08;;;;;;;7.30;1.40;;;25.80;99.90;;;;;;5044219;28;20037;-64
2022/05/14 13:09:36;;;;;;;10.00;2.00;;;25.40;99.70;;;;;;5046720;28;20132;-64
2022/05/14 13:12:01;;;;;;;5.70;1.60;;;25.50;99.90;;;;;;5041261;28;20393;-64
2022/05/14 13:14:32;;;;;;;7.32;1.40;;;25.90;98.30;;;;;;5043715;28;20029;-64
2022/05/14 13:17:10;;;;;;;6.28;1.50;;;25.20;97.50;;;;;;5044190;28;20060;-64
2022/05/14 13:19:42;;;;;;;8.27;1.40;;;25.10;97.10;;;;;;5044712;28;20364;-65
2022/05/14 13:22:38;;;;;;;6.30;1.60;;;25.20;97.90;;;;;;5044626;28;20394;-63
2022/05/14 13:25:27;;;;;;;8.52;1.55;;;25.20;96.80;;;;;;5040037;28;20132;-64
2022/05/14 13:27:52;;;;;;;9.95;1.85;;;25.20;98.10;;;;;;5040578;28;20050;-64